Time;durP1;ratioP1;P1;durP2;ratioP2;P2;SDS_P1;SDS_P2;PMS_P1;PMS_P2;Temp;Humidity;BMP_temperature;BMP_pressure;BME280_temperature;BME280_humidity;BME280_pressure;Samples;Min_cycle;Max_cycle;Signal;HPM_P1;HPM_P2
2022/10/24 00:02:18;;;;;;;3.87;2.30;;;;;;;15.74;46.96;101789.94;5032292;28;20477;-76
2022/10/24 00:04:43;;;;;;;3.80;2.40;;;;;;;15.67;46.89;101784.44;5032180;28;20424;-77
2022/10/24 00:07:09;;;;;;;4.17;2.37;;;;;;;15.64;46.97;101790.13;5051353;28;20384;-76
2022/10/24 00:09:35;;;;;;;2.78;2.20;;;;;;;15.57;47.13;101780.31;5039859;28;20819;-76
2022/10/24 00:12:02;;;;;;;3.00;2.30;;;;;;;15.53;47.11;101785.19;5045781;28;20374;-76
2022/10/24 00:14:27;;;;;;;3.85;2.30;;;;;;;15.50;47.11;101777.50;5032007;28;20383;-77
2022/10/24 00:16:53;;;;;;;5.57;2.30;;;;;;;15.52;46.92;101785.34;5033325;28;20440;-77
2022/10/24 00:19:18;;;;;;;4.97;2.50;;;;;;;15.50;46.91;101782.84;5044263;28;20430;-77
2022/10/24 00:21:44;;;;;;;5.17;2.83;;;;;;;15.34;47.15;101783.81;5031887;28;20433;-77
2022/10/24 00:24:10;;;;;;;6.00;2.50;;;;;;;15.22;47.63;101787.88;5045547;28;20490;-76
2022/10/24 00:26:35;;;;;;;4.05;2.67;;;;;;;15.15;47.99;101787.72;5043037;28;20923;-76
2022/10/24 00:29:01;;;;;;;7.57;2.30;;;;;;;14.88;48.46;101779.16;5034143;28;20402;-77
2022/10/24 00:31:27;;;;;;;5.60;2.00;;;;;;;14.76;49.01;101785.84;5047188;28;20464;-76
2022/10/24 00:33:53;;;;;;;3.03;2.10;;;;;;;14.90;48.58;101787.00;5031463;28;20801;-76
2022/10/24 00:36:20;;;;;;;3.83;2.15;;;;;;;14.97;47.99;101779.97;5031615;28;20390;-76
2022/10/24 00:38:46;;;;;;;4.20;2.20;;;;;;;14.97;48.36;101779.97;5044585;28;20456;-77
2022/10/24 00:41:19;;;;;;;5.03;2.47;;;;;;;14.94;48.12;101768.78;5031603;28;20417;-77
2022/10/24 00:43:44;;;;;;;8.43;2.15;;;;;;;14.86;48.26;101765.16;5045034;28;20466;-77
2022/10/24 00:46:10;;;;;;;3.72;2.40;;;;;;;14.90;48.24;101758.44;5042853;28;20492;-77
2022/10/24 00:48:47;;;;;;;3.78;2.20;;;;;;;14.90;48.58;101766.47;5051164;28;20392;-77
2022/10/24 00:51:23;;;;;;;4.95;2.70;;;;;;;14.84;48.63;101771.69;5051238;28;20381;-77
2022/10/24 00:53:52;;;;;;;4.95;2.63;;;;;;;14.81;48.62;101767.50;5032553;28;20723;-77
2022/10/24 00:56:21;;;;;;;4.30;2.67;;;;;;;14.68;49.41;101759.22;5042063;28;20404;-77
2022/10/24 00:58:48;;;;;;;4.40;2.67;;;;;;;14.67;49.35;101768.22;5050879;28;20761;-76
2022/10/24 01:01:14;;;;;;;5.50;2.88;;;;;;;14.71;49.20;101754.38;5042088;28;20448;-76
2022/10/24 01:03:40;;;;;;;4.07;2.50;;;;;;;14.63;49.82;101757.03;5045123;28;20385;-76
2022/10/24 01:06:24;;;;;;;5.82;3.10;;;;;;;14.58;49.89;101751.38;5037479;28;20488;-76
2022/10/24 01:08:53;;;;;;;4.35;3.10;;;;;;;14.48;50.63;101753.41;5050109;28;20733;-76
2022/10/24 01:11:36;;;;;;;5.05;3.35;;;;;;;14.55;50.60;101759.72;5051102;28;20393;-76
2022/10/24 01:14:37;;;;;;;6.38;3.20;;;;;;;14.61;50.67;101769.72;5034506;28;20434;-77
2022/10/24 01:17:09;;;;;;;4.57;3.28;;;;;;;14.62;50.50;101773.22;5044001;28;20986;-77
2022/10/24 01:20:03;;;;;;;5.32;3.30;;;;;;;14.52;51.14;101768.88;5037299;28;20499;-77
2022/10/24 01:23:05;;;;;;;5.13;3.58;;;;;;;14.67;50.54;101762.88;5050524;28;20491;-77
2022/10/24 01:25:43;;;;;;;6.82;4.05;;;;;;;14.74;50.23;101771.84;5037520;28;20452;-77
2022/10/24 01:28:20;;;;;;;4.75;3.70;;;;;;;14.65;50.66;101767.56;5044690;28;20465;-77
2022/10/24 01:31:19;;;;;;;6.10;3.90;;;;;;;14.70;50.49;101773.22;5045389;28;20868;-77
2022/10/24 01:33:52;;;;;;;6.03;4.57;;;;;;;14.52;51.32;101773.38;5044182;28;20386;-77
2022/10/24 01:36:48;;;;;;;6.38;3.90;;;;;;;14.52;51.30;101776.88;5032917;28;20382;-77
2022/10/24 01:39:18;;;;;;;6.90;3.97;;;;;;;14.61;51.18;101766.22;5058178;28;20460;-77
2022/10/24 01:41:46;;;;;;;8.05;3.88;;;;;;;14.68;50.85;101761.88;5055441;28;20383;-77
2022/10/24 01:44:26;;;;;;;7.37;3.43;;;;;;;14.81;50.35;101758.66;5052500;28;20415;-77
2022/10/24 01:47:00;;;;;;;4.97;2.90;;;;;;;14.84;50.32;101758.31;5045616;28;20388;-77
2022/10/24 01:49:32;;;;;;;8.35;3.40;;;;;;;14.74;50.32;101749.69;5044199;28;20411;-77
2022/10/24 01:52:01;;;;;;;4.60;3.15;;;;;;;14.82;50.43;101752.31;5050608;28;20391;-77
2022/10/24 01:54:28;;;;;;;3.97;3.08;;;;;;;14.88;50.12;101744.44;5038212;28;20453;-77
2022/10/24 01:56:54;;;;;;;5.13;3.25;;;;;;;15.00;49.64;101755.59;5030892;28;20471;-77
2022/10/24 01:59:27;;;;;;;4.63;3.30;;;;;;;15.05;49.52;101763.06;5041307;28;20491;-77
2022/10/24 02:01:57;;;;;;;6.17;3.00;;;;;;;14.95;49.92;101762.47;5045712;28;20390;-77
2022/10/24 02:04:25;;;;;;;5.18;3.42;;;;;;;14.81;50.30;101759.47;5030780;28;20501;-77
2022/10/24 02:06:54;;;;;;;5.47;3.20;;;;;;;14.85;50.19;101767.97;5044548;28;20380;-77
2022/10/24 02:09:21;;;;;;;7.78;3.67;;;;;;;14.89;50.44;101772.81;5045033;28;20386;-77
2022/10/24 02:11:48;;;;;;;7.03;3.60;;;;;;;14.86;50.20;101764.31;5030633;28;20375;-77
2022/10/24 02:14:18;;;;;;;5.57;3.60;;;;;;;14.90;50.15;101766.47;5045452;28;20454;-77
2022/10/24 02:16:44;;;;;;;6.53;3.63;;;;;;;14.93;50.36;101759.09;5049501;28;20384;-77
2022/10/24 02:19:12;;;;;;;6.68;3.70;;;;;;;14.95;50.04;101759.78;5050351;28;20413;-77
2022/10/24 02:22:07;;;;;;;5.63;3.70;;;;;;;14.95;50.17;101752.59;5038237;28;20698;-77
2022/10/24 02:24:40;;;;;;;8.18;4.07;;;;;;;14.90;50.38;101765.63;5037388;28;20739;-76
2022/10/24 02:27:13;;;;;;;9.48;5.93;;;;;;;14.80;51.06;101762.31;5034240;28;20738;-76
2022/10/24 02:29:46;;;;;;;9.77;6.93;;;;;;;14.66;51.58;101763.88;5048144;28;20448;-76
2022/10/24 02:32:17;;;;;;;7.03;5.32;;;;;;;14.61;52.08;101760.91;5043695;28;20695;-76
2022/10/24 02:34:45;;;;;;;6.53;4.38;;;;;;;14.68;52.47;101762.69;5037201;28;20382;-76
2022/10/24 02:37:12;;;;;;;6.57;4.82;;;;;;;14.77;52.53;101768.03;5041552;28;20388;-76
2022/10/24 02:39:41;;;;;;;6.13;4.50;;;;;;;14.79;52.26;101766.00;5052815;28;20513;-76
2022/10/24 02:42:08;;;;;;;7.03;4.13;;;;;;;14.82;52.44;101765.66;5053102;28;20387;-76
2022/10/24 02:44:34;;;;;;;6.50;3.88;;;;;;;14.78;53.01;101759.81;5041360;28;20835;-76
2022/10/24 02:47:04;;;;;;;7.40;4.10;;;;;;;14.87;52.97;101757.97;5047960;28;20382;-76
2022/10/24 02:49:29;;;;;;;4.45;3.78;;;;;;;14.77;52.70;101766.19;5044637;28;20372;-76
2022/10/24 02:51:55;;;;;;;6.17;4.10;;;;;;;14.61;53.54;101763.56;5053580;28;20735;-76
2022/10/24 02:54:21;;;;;;;5.93;3.57;;;;;;;14.63;53.69;101762.38;5039560;28;20442;-76
2022/10/24 02:56:52;;;;;;;8.07;4.00;;;;;;;14.72;53.63;101752.50;5061169;28;20373;-75
2022/10/24 02:59:17;;;;;;;7.72;4.15;;;;;;;14.80;53.28;101760.50;5047758;28;20449;-77
2022/10/24 03:01:43;;;;;;;5.63;3.93;;;;;;;14.69;53.63;101760.84;5057924;28;20380;-75
2022/10/24 03:04:08;;;;;;;4.50;3.73;;;;;;;14.70;53.44;101775.88;5058722;28;20413;-75
2022/10/24 03:06:34;;;;;;;6.63;4.28;;;;;;;14.61;53.49;101772.41;5071930;28;20377;-75
2022/10/24 03:08:59;;;;;;;5.83;3.90;;;;;;;14.55;53.62;101778.41;5072978;28;20381;-75
2022/10/24 03:11:25;;;;;;;6.45;3.60;;;;;;;14.50;53.73;101775.41;5065784;28;20380;-75
2022/10/24 03:13:52;;;;;;;6.97;5.33;;;;;;;14.51;53.69;101777.03;5073954;28;20392;-76
2022/10/24 03:16:17;;;;;;;8.25;5.55;;;;;;;14.54;53.37;101782.88;5056103;28;20407;-76
2022/10/24 03:18:43;;;;;;;7.28;4.13;;;;;;;14.47;53.08;101781.06;5073306;28;20391;-76
2022/10/24 03:21:09;;;;;;;5.03;4.05;;;;;;;14.42;52.89;101775.41;5087731;28;20377;-77
2022/10/24 03:23:53;;;;;;;5.30;3.80;;;;;;;14.40;53.02;101774.75;5072257;28;20424;-74
2022/10/24 03:26:19;;;;;;;5.20;3.75;;;;;;;14.47;52.54;101776.56;5014845;28;20406;-75
2022/10/24 03:28:44;;;;;;;9.07;4.55;;;;;;;14.53;52.43;101773.22;5018774;28;20868;-76
2022/10/24 03:31:10;;;;;;;6.30;4.67;;;;;;;14.43;52.64;101782.41;5013216;28;20416;-75
2022/10/24 03:33:35;;;;;;;5.63;3.70;;;;;;;14.41;52.96;101784.41;5003968;28;20421;-75
2022/10/24 03:36:02;;;;;;;4.72;3.35;;;;;;;14.40;52.81;101785.41;5031726;28;20857;-76
2022/10/24 03:38:29;;;;;;;4.20;2.70;;;;;;;14.34;52.69;101777.06;5013873;28;20439;-74
2022/10/24 03:40:55;;;;;;;4.93;2.67;;;;;;;14.34;52.51;101776.25;5034315;28;20398;-75
2022/10/24 03:43:21;;;;;;;5.57;2.57;;;;;;;14.39;52.68;101781.09;5036277;28;20388;-74
2022/10/24 03:45:46;;;;;;;4.63;2.47;;;;;;;14.40;52.79;101788.91;5026855;28;20393;-75
2022/10/24 03:48:12;;;;;;;2.92;2.30;;;;;;;14.36;52.87;101790.25;5013929;28;20407;-76
2022/10/24 03:50:39;;;;;;;4.35;2.53;;;;;;;14.28;52.89;101787.59;5017434;28;20452;-76
2022/10/24 03:53:04;;;;;;;5.60;2.50;;;;;;;14.30;53.10;101785.59;5012451;28;20397;-75
2022/10/24 03:55:30;;;;;;;4.75;2.70;;;;;;;14.43;52.66;101787.75;5000218;28;20388;-75
2022/10/24 03:57:57;;;;;;;3.83;3.22;;;;;;;14.62;52.15;101790.09;5005921;28;20384;-76
2022/10/24 04:00:23;;;;;;;5.83;2.70;;;;;;;14.69;52.11;101793.75;5031653;28;20414;-76
2022/10/24 04:02:52;;;;;;;4.83;3.10;;;;;;;14.57;52.28;101795.06;5030900;28;20402;-77
2022/10/24 04:05:18;;;;;;;7.38;3.70;;;;;;;14.64;52.16;101806.75;5026267;28;20418;-75
2022/10/24 04:07:44;;;;;;;7.40;4.07;;;;;;;14.69;51.99;101792.88;5008347;28;20381;-77
2022/10/24 04:10:09;;;;;;;7.10;4.10;;;;;;;14.75;52.03;101804.72;5017748;28;20393;-76
2022/10/24 04:12:37;;;;;;;5.47;4.10;;;;;;;14.66;52.20;101807.41;5007806;28;20398;-76
2022/10/24 04:15:03;;;;;;;6.47;4.20;;;;;;;14.58;52.67;101806.59;5000756;28;20386;-76
2022/10/24 04:17:30;;;;;;;6.60;3.70;;;;;;;14.54;52.76;101800.72;5034851;28;20381;-77
2022/10/24 04:19:55;;;;;;;5.83;3.70;;;;;;;14.59;52.44;101803.75;5066351;28;20401;-74
2022/10/24 04:22:21;;;;;;;6.13;3.85;;;;;;;14.61;52.12;101809.75;5071249;28;20381;-75
2022/10/24 04:24:46;;;;;;;8.73;3.90;;;;;;;14.58;52.28;101806.59;5061034;28;20384;-75
2022/10/24 04:27:12;;;;;;;8.80;3.27;;;;;;;14.54;52.13;101806.06;5070207;28;20396;-76
2022/10/24 04:29:39;;;;;;;4.57;2.85;;;;;;;14.51;52.05;101807.25;5067598;28;20378;-76
2022/10/24 04:32:05;;;;;;;4.38;2.80;;;;;;;14.46;51.88;101800.75;5051901;28;20414;-76
2022/10/24 04:34:36;;;;;;;10.40;3.28;;;;;;;14.44;52.09;101800.91;5035334;28;20458;-76
2022/10/24 04:37:03;;;;;;;7.32;3.40;;;;;;;14.50;51.70;101797.56;5071725;28;20381;-76
2022/10/24 04:39:29;;;;;;;7.78;3.65;;;;;;;14.63;51.45;101797.06;5062917;28;20450;-77
2022/10/24 04:41:54;;;;;;;7.47;3.03;;;;;;;14.62;51.37;101789.22;5070144;28;20392;-76
2022/10/24 04:44:20;;;;;;;9.00;3.58;;;;;;;14.70;51.35;101799.91;5054144;28;20383;-77
2022/10/24 04:46:45;;;;;;;9.90;4.30;;;;;;;14.70;51.15;101797.22;5068936;28;20420;-77
2022/10/24 04:49:11;;;;;;;6.40;3.55;;;;;;;14.69;50.93;101792.88;5061146;28;20477;-76
2022/10/24 04:51:36;;;;;;;13.10;4.10;;;;;;;14.71;51.08;101781.06;5072517;28;20411;-74
2022/10/24 04:54:02;;;;;;;20.50;4.90;;;;;;;14.73;51.04;101786.22;5083715;28;20382;-77
2022/10/24 04:56:28;;;;;;;14.10;5.22;;;;;;;14.77;51.01;101795.53;5064994;28;20376;-76
2022/10/24 04:58:58;;;;;;;8.63;5.00;;;;;;;14.62;51.44;101784.75;5072589;28;20404;-76
2022/10/24 05:01:23;;;;;;;8.95;4.40;;;;;;;14.66;51.32;101791.41;5072249;28;20388;-76
2022/10/24 05:03:49;;;;;;;9.50;4.87;;;;;;;14.71;51.54;101789.06;5070919;28;20393;-76
2022/10/24 05:06:14;;;;;;;13.05;4.75;;;;;;;14.72;51.21;101788.03;5077621;28;20384;-77
2022/10/24 05:08:40;;;;;;;15.40;5.57;;;;;;;14.77;51.31;101789.38;5072067;28;20364;-75
2022/10/24 05:11:06;;;;;;;15.75;5.75;;;;;;;14.73;51.51;101794.22;5072317;28;20389;-76
2022/10/24 05:13:31;;;;;;;13.80;5.23;;;;;;;14.76;51.93;101796.53;5050503;28;20393;-75
2022/10/24 05:15:59;;;;;;;8.70;4.90;;;;;;;14.76;52.33;101799.19;5068018;28;20386;-76
2022/10/24 05:18:26;;;;;;;13.27;6.35;;;;;;;14.66;52.15;101807.41;5073955;28;20396;-76
2022/10/24 05:20:57;;;;;;;13.85;6.70;;;;;;;14.68;52.80;101816.06;5073733;28;20395;-78
2022/10/24 05:24:01;;;;;;;15.57;6.18;;;;;;;14.70;52.44;101816.75;5073013;28;20412;-76
2022/10/24 05:26:27;;;;;;;18.85;5.88;;;;;;;14.58;52.67;101820.75;5019345;28;20442;-77
2022/10/24 05:28:52;;;;;;;11.20;5.13;;;;;;;14.52;52.99;101821.41;5015222;28;20388;-76
2022/10/24 05:31:23;;;;;;;15.13;4.93;;;;;;;14.51;53.22;101828.59;5052528;28;20405;-78
2022/10/24 05:33:51;;;;;;;9.32;4.82;;;;;;;14.50;53.04;101844.75;5036518;28;20404;-78
2022/10/24 05:36:17;;;;;;;13.93;5.75;;;;;;;14.53;53.18;101847.06;5020669;28;20466;-78
2022/10/24 05:38:46;;;;;;;11.15;5.07;;;;;;;14.53;52.80;101839.94;5016147;28;20408;-78
2022/10/24 05:41:14;;;;;;;10.38;5.20;;;;;;;14.62;52.73;101848.78;5015024;28;20430;-77
2022/10/24 05:43:39;;;;;;;12.70;5.53;;;;;;;14.61;52.46;101836.44;5015921;28;20829;-77
2022/10/24 05:46:08;;;;;;;13.80;5.40;;;;;;;14.65;52.30;101844.94;5032940;28;20415;-77
2022/10/24 05:48:35;;;;;;;14.40;6.10;;;;;;;14.71;52.03;101837.09;5049214;28;20396;-77
2022/10/24 05:51:01;;;;;;;14.93;7.03;;;;;;;14.82;51.97;101843.91;5034758;28;20875;-77
2022/10/24 05:53:49;;;;;;;16.55;9.07;;;;;;;14.79;52.25;101840.75;5004569;28;20391;-77
2022/10/24 05:56:14;;;;;;;23.85;12.77;;;;;;;14.78;52.16;101839.06;5003006;28;20396;-75
2022/10/24 05:58:40;;;;;;;28.75;14.27;;;;;;;14.82;52.21;101843.06;5035207;28;20384;-80
2022/10/24 06:01:05;;;;;;;22.47;12.27;;;;;;;14.89;52.25;101847.56;5036693;28;20380;-77
2022/10/24 06:03:32;;;;;;;22.10;11.43;;;;;;;14.99;51.68;101852.72;5020054;28;20394;-77
2022/10/24 06:06:02;;;;;;;23.70;11.25;;;;;;;15.06;51.90;101855.53;5036945;28;20438;-76
2022/10/24 06:08:28;;;;;;;21.73;10.32;;;;;;;15.06;51.91;101851.00;5021911;28;20394;-76
2022/10/24 06:10:56;;;;;;;22.52;11.95;;;;;;;15.03;51.88;101862.03;5041282;28;20434;-76
2022/10/24 06:13:43;;;;;;;19.35;9.30;;;;;;;14.91;52.27;101866.91;5008595;28;20421;-77
2022/10/24 06:16:11;;;;;;;19.30;9.63;;;;;;;14.94;52.35;101878.25;5037096;28;20427;-76
2022/10/24 06:18:41;;;;;;;18.02;9.30;;;;;;;14.89;52.24;101871.59;5050609;28;20394;-79
2022/10/24 06:21:08;;;;;;;18.10;8.52;;;;;;;14.87;52.47;101886.97;5038098;28;20404;-77
2022/10/24 06:23:35;;;;;;;17.02;8.23;;;;;;;14.99;52.18;101881.25;5051437;28;20390;-78
2022/10/24 06:26:07;;;;;;;11.27;7.45;;;;;;;15.06;52.17;101883.06;5057579;28;20374;-77
2022/10/24 06:28:36;;;;;;;16.15;7.50;;;;;;;15.07;51.98;101882.06;5065507;28;20396;-77
2022/10/24 06:31:03;;;;;;;12.23;7.10;;;;;;;15.13;51.60;101877.06;5061194;28;21177;-77
2022/10/24 06:33:30;;;;;;;15.38;7.88;;;;;;;15.26;51.49;101867.47;5043250;28;20452;-77
2022/10/24 06:36:01;;;;;;;16.42;7.53;;;;;;;15.29;51.39;101866.31;5030979;28;20424;-79
2022/10/24 06:38:28;;;;;;;10.57;6.97;;;;;;;15.37;51.22;101860.09;5024135;28;20394;-79
2022/10/24 06:40:54;;;;;;;16.30;8.30;;;;;;;15.44;51.11;101866.41;5067481;28;20396;-79
2022/10/24 06:43:19;;;;;;;13.77;7.90;;;;;;;15.47;51.03;101868.75;5059926;28;20388;-77
2022/10/24 06:45:46;;;;;;;18.60;8.67;;;;;;;15.53;51.01;101859.19;5077458;28;20388;-77
2022/10/24 06:48:13;;;;;;;30.15;16.40;;;;;;;15.57;50.82;101869.34;5061333;28;20401;-77
2022/10/24 06:50:40;;;;;;;17.55;9.60;;;;;;;15.71;50.82;101880.31;5077264;28;20431;-80
2022/10/24 06:53:09;;;;;;;17.73;7.38;;;;;;;15.71;50.94;101877.66;5061094;28;20449;-79
2022/10/24 06:55:57;;;;;;;17.63;8.20;;;;;;;15.73;51.28;101884.47;5093688;28;20391;-80
2022/10/24 06:58:24;;;;;;;17.10;7.00;;;;;;;15.76;51.37;101888.69;5056702;28;20430;-78
2022/10/24 07:00:52;;;;;;;12.95;7.00;;;;;;;15.80;51.43;101880.13;5074339;28;20455;-79
2022/10/24 07:03:35;;;;;;;12.77;6.85;;;;;;;15.84;51.43;101889.44;5092256;28;20409;-77
2022/10/24 07:06:15;;;;;;;13.70;6.35;;;;;;;15.97;51.28;101888.03;5056683;28;20382;-78
2022/10/24 07:08:42;;;;;;;10.80;6.50;;;;;;;15.99;51.31;101889.53;5085288;28;20393;-78
2022/10/24 07:11:07;;;;;;;17.67;6.88;;;;;;;16.08;51.40;101890.31;5060339;28;20393;-80
2022/10/24 07:13:44;;;;;;;16.57;8.10;;;;;;;16.27;50.84;101888.19;5057143;28;20386;-77
2022/10/24 07:16:09;;;;;;;13.17;7.10;;;;;;;16.34;50.56;101884.59;5059817;28;20388;-76
2022/10/24 07:18:35;;;;;;;10.57;6.47;;;;;;;16.35;50.54;101883.59;5077143;28;20388;-77
2022/10/24 07:21:14;;;;;;;11.50;7.13;;;;;;;16.47;50.31;101884.00;5075507;28;20372;-77
2022/10/24 07:23:40;;;;;;;12.47;6.40;;;;;;;16.55;50.13;101881.25;5076952;28;20369;-76
2022/10/24 07:26:09;;;;;;;11.65;6.00;;;;;;;16.53;50.23;101885.97;5075961;28;20389;-76
2022/10/24 07:28:43;;;;;;;9.93;5.72;;;;;;;16.61;49.99;101880.53;5055663;28;20390;-77
2022/10/24 07:31:12;;;;;;;11.27;5.53;;;;;;;16.63;49.84;101873.13;5071746;28;20388;-77
2022/10/24 07:33:42;;;;;;;6.07;4.30;;;;;;;16.64;49.27;101868.63;5054424;28;20401;-77
2022/10/24 07:36:16;;;;;;;6.17;3.73;;;;;;;16.73;48.63;101869.41;5023636;28;20416;-77
2022/10/24 07:38:42;;;;;;;5.97;4.25;;;;;;;16.79;48.47;101863.28;5038502;28;20474;-77
2022/10/24 07:41:08;;;;;;;9.55;5.07;;;;;;;16.91;48.24;101874.44;5056540;28;20417;-81
2022/10/24 07:43:36;;;;;;;10.38;4.43;;;;;;;16.88;48.42;101862.22;5056687;28;20458;-79
2022/10/24 07:46:15;;;;;;;7.47;4.72;;;;;;;16.99;48.21;101858.25;5056752;28;20395;-77
2022/10/24 07:48:58;;;;;;;5.30;4.05;;;;;;;16.98;48.16;101873.50;5003738;28;20364;-77
2022/10/24 07:51:27;;;;;;;7.85;4.40;;;;;;;16.95;48.14;101868.50;5031930;28;20437;-76
2022/10/24 07:53:53;;;;;;;6.10;3.75;;;;;;;17.08;48.02;101867.84;5038368;28;20410;-76
2022/10/24 07:56:19;;;;;;;8.43;4.38;;;;;;;17.08;48.07;101867.03;5054278;28;20405;-77
2022/10/24 07:58:47;;;;;;;5.88;3.85;;;;;;;17.04;47.97;101869.25;5021874;28;20387;-76
2022/10/24 08:01:17;;;;;;;8.18;4.63;;;;;;;17.02;48.15;101870.47;5038882;28;20386;-80
2022/10/24 08:03:48;;;;;;;8.63;4.40;;;;;;;17.12;48.07;101862.97;5059678;28;20391;-79
2022/10/24 08:06:19;;;;;;;8.32;4.43;;;;;;;17.14;48.07;101848.38;5061193;28;20419;-77
2022/10/24 08:08:58;;;;;;;6.45;4.30;;;;;;;17.27;47.90;101853.09;5075437;28;20381;-77
2022/10/24 08:11:26;;;;;;;10.60;7.65;;;;;;;17.42;47.74;101861.09;5055789;28;20407;-76
2022/10/24 08:13:56;;;;;;;6.97;4.90;;;;;;;17.60;47.63;101868.72;5056398;28;20457;-77
2022/10/24 08:16:22;;;;;;;8.50;4.93;;;;;;;17.61;47.48;101862.38;5054650;28;20385;-77
2022/10/24 08:18:50;;;;;;;8.32;5.30;;;;;;;17.58;47.58;101860.06;5083235;28;20388;-78
2022/10/24 08:21:18;;;;;;;10.77;4.63;;;;;;;17.72;47.36;101863.72;5074384;28;20428;-77
2022/10/24 08:23:46;;;;;;;7.95;5.80;;;;;;;17.83;47.26;101865.09;5073565;28;20369;-76
2022/10/24 08:26:15;;;;;;;9.07;5.30;;;;;;;17.95;47.04;101858.19;5075057;28;20377;-78
2022/10/24 08:28:42;;;;;;;8.73;5.38;;;;;;;18.01;46.91;101853.94;5059635;28;20446;-78
2022/10/24 08:31:13;;;;;;;8.70;5.95;;;;;;;18.05;46.69;101863.28;5059969;28;20397;-78
2022/10/24 08:33:52;;;;;;;9.73;5.70;;;;;;;18.12;46.77;101848.88;5020606;28;20396;-78
2022/10/24 08:36:22;;;;;;;7.28;5.40;;;;;;;18.28;46.47;101844.28;5030687;28;20463;-79
2022/10/24 08:39:01;;;;;;;8.75;5.63;;;;;;;18.34;46.36;101844.31;5035367;28;20462;-78
2022/10/24 08:41:54;;;;;;;9.18;5.80;;;;;;;18.43;46.37;101836.97;5036810;28;20400;-78
2022/10/24 08:44:49;;;;;;;7.20;4.80;;;;;;;18.41;46.28;101836.34;5035621;28;20400;-79
2022/10/24 08:47:37;;;;;;;9.00;5.32;;;;;;;18.59;46.13;101837.72;5035405;28;20402;-79
2022/10/24 08:50:29;;;;;;;10.30;5.00;;;;;;;18.69;45.70;101832.81;5036341;28;20398;-79
2022/10/24 08:53:22;;;;;;;10.18;6.68;;;;;;;18.72;45.58;101829.72;5024833;28;20402;-78
2022/10/24 08:55:53;;;;;;;9.07;6.30;;;;;;;18.82;45.45;101824.06;5032717;28;20397;-78
2022/10/24 08:58:21;;;;;;;10.27;5.93;;;;;;;18.89;45.16;101824.94;5012680;28;20412;-78
2022/10/24 09:00:50;;;;;;;8.32;5.10;;;;;;;18.87;45.49;101826.97;5036315;28;20498;-78
2022/10/24 09:03:29;;;;;;;6.45;5.00;;;;;;;18.96;45.28;101835.69;5006540;28;20453;-77
2022/10/24 09:06:21;;;;;;;9.27;5.00;;;;;;;19.12;45.01;101827.28;5075331;28;20454;-77
2022/10/24 09:09:11;;;;;;;8.57;5.32;;;;;;;19.21;44.98;101825.28;5059094;28;20429;-78
2022/10/24 09:11:52;;;;;;;6.53;4.60;;;;;;;19.21;44.66;101823.44;5075911;28;20872;-78
2022/10/24 09:14:28;;;;;;;34.25;22.73;;;;;;;19.18;44.97;101823.00;5072464;28;20394;-79
2022/10/24 09:17:22;;;;;;;12.00;8.63;;;;;;;19.26;45.29;101825.50;5055852;28;20394;-78
2022/10/24 09:20:25;;;;;;;6.50;4.07;;;;;;;19.39;44.64;101825.56;5086389;28;20412;-78
2022/10/24 09:23:11;;;;;;;7.82;3.97;;;;;;;19.41;44.26;101822.66;5076561;28;20380;-80
2022/10/24 09:25:59;;;;;;;6.68;3.97;;;;;;;19.52;44.24;101824.78;5076383;28;20383;-79
2022/10/24 09:28:33;;;;;;;6.40;4.88;;;;;;;19.59;44.07;101814.88;5076049;28;20397;-77
2022/10/24 09:31:12;;;;;;;6.50;4.78;;;;;;;19.62;44.08;101809.06;5072907;28;20420;-78
2022/10/24 09:33:42;;;;;;;7.13;5.03;;;;;;;19.78;43.98;101815.16;5039803;28;20381;-79
2022/10/24 09:36:28;;;;;;;10.35;5.70;;;;;;;19.80;43.87;101799.63;5060719;28;20401;-79
2022/10/24 09:39:16;;;;;;;13.77;5.88;;;;;;;19.91;43.63;101825.91;5075998;28;20435;-78
2022/10/24 09:42:00;;;;;;;7.68;5.18;;;;;;;19.87;43.70;101805.84;5074798;28;20412;-79
2022/10/24 09:44:42;;;;;;;9.52;4.97;;;;;;;19.91;43.62;101800.88;5059736;28;20404;-78
2022/10/24 09:47:40;;;;;;;7.63;4.70;;;;;;;19.97;43.51;101791.97;5056116;28;20385;-79
2022/10/24 09:50:19;;;;;;;7.72;4.95;;;;;;;19.98;43.38;101783.69;5066712;28;20390;-79
2022/10/24 09:53:04;;;;;;;8.03;5.03;;;;;;;20.03;43.23;101778.53;5064330;28;20392;-78
2022/10/24 09:55:30;;;;;;;7.53;4.90;;;;;;;20.11;43.19;101784.75;5061453;28;20440;-80
2022/10/24 09:58:02;;;;;;;10.55;6.70;;;;;;;20.12;43.28;101776.47;5034861;28;20415;-80
2022/10/24 10:01:00;;;;;;;6.32;4.65;;;;;;;20.11;43.43;101782.88;5019089;28;20428;-79
2022/10/24 10:03:29;;;;;;;8.15;4.70;;;;;;;20.17;43.20;101782.06;5017429;28;20417;-78
2022/10/24 10:06:00;;;;;;;6.63;4.53;;;;;;;20.15;43.12;101784.13;5018573;28;20404;-78
2022/10/24 10:08:51;;;;;;;7.35;5.13;;;;;;;20.19;43.00;101771.91;5018304;28;20395;-77
2022/10/24 10:11:25;;;;;;;6.82;4.65;;;;;;;20.22;43.08;101770.63;5016189;28;20380;-79
2022/10/24 10:13:54;;;;;;;8.18;5.05;;;;;;;20.27;43.11;101773.53;4986821;28;20391;-79
2022/10/24 10:16:56;;;;;;;8.05;5.03;;;;;;;20.30;43.13;101767.75;5018624;28;20507;-79
2022/10/24 10:19:22;;;;;;;7.88;5.30;;;;;;;20.33;43.16;101769.19;5017142;28;20411;-79
2022/10/24 10:22:06;;;;;;;9.02;4.85;;;;;;;20.44;42.91;101755.09;5018366;28;20391;-79
2022/10/24 10:24:31;;;;;;;10.20;4.35;;;;;;;20.44;42.67;101752.41;5018323;28;20416;-79
2022/10/24 10:26:57;;;;;;;8.20;4.50;;;;;;;20.46;42.81;101750.31;5018159;28;20412;-80
2022/10/24 10:29:24;;;;;;;6.38;4.50;;;;;;;20.59;42.68;101758.38;5058861;28;20407;-80
2022/10/24 10:32:34;;;;;;;6.22;4.38;;;;;;;20.69;42.43;101755.28;5071714;28;20448;-78
2022/10/24 10:35:43;;;;;;;10.13;4.22;;;;;;;20.71;42.17;101747.81;5042724;28;20393;-80
2022/10/24 10:38:44;;;;;;;7.55;4.35;;;;;;;20.83;42.09;101753.34;5075066;28;20396;-81
2022/10/24 10:41:45;;;;;;;7.32;4.07;;;;;;;20.89;41.84;101757.91;5075395;28;20400;-80
2022/10/24 10:44:44;;;;;;;5.10;3.78;;;;;;;20.92;41.70;101753.94;5281442;23;20424;-79
2022/10/24 10:48:01;;;;;;;5.33;3.80;;;;;;;21.05;41.58;101756.59;5038435;28;20388;-80
2022/10/24 10:50:57;;;;;;;6.18;3.60;;;;;;;21.03;41.39;101747.91;5038930;28;20427;-81
2022/10/24 10:53:41;;;;;;;7.05;3.88;;;;;;;21.08;41.27;101742.66;5037659;28;20460;-78
2022/10/24 10:56:42;;;;;;;6.30;3.50;;;;;;;21.21;41.05;101744.47;5038867;28;20419;-80
2022/10/24 11:00:01;;;;;;;7.20;4.10;;;;;;;21.11;41.91;101736.84;5018101;28;20421;-79
2022/10/24 11:02:55;;;;;;;5.57;3.70;;;;;;;21.13;41.49;101742.84;5031709;28;20416;-78
2022/10/24 11:05:49;;;;;;;5.65;3.17;;;;;;;21.23;40.97;101737.00;5032478;28;20407;-80
2022/10/24 11:08:55;;;;;;;6.70;3.58;;;;;;;21.23;41.01;101726.22;5037939;28;20415;-80
2022/10/24 11:11:28;;;;;;;6.32;3.67;;;;;;;21.34;41.08;101727.41;5037141;28;20384;-80
2022/10/24 11:13:57;;;;;;;7.95;4.22;;;;;;;21.36;41.33;101728.00;5004628;28;20407;-80
2022/10/24 11:16:46;;;;;;;6.97;3.27;;;;;;;21.38;40.47;101723.22;5012892;28;20408;-81
2022/10/24 11:19:42;;;;;;;10.27;3.60;;;;;;;21.50;40.23;101729.63;5022147;28;20416;-80
2022/10/24 11:22:27;;;;;;;5.90;3.35;;;;;;;21.59;39.93;101724.78;5024104;28;20384;-81
2022/10/24 11:25:01;;;;;;;7.65;3.63;;;;;;;21.63;39.63;101717.06;4985552;28;20382;-81
2022/10/24 11:28:03;;;;;;;5.07;3.13;;;;;;;21.68;39.34;101715.38;5018560;28;20413;-79
2022/10/24 11:30:54;;;;;;;6.35;3.20;;;;;;;21.74;39.50;101711.78;5007044;28;20400;-80
2022/10/24 11:33:45;;;;;;;6.90;3.95;;;;;;;21.85;39.30;101710.25;5003340;28;20410;-79
2022/10/24 11:36:36;;;;;;;7.18;3.30;;;;;;;21.91;39.10;101698.56;5032794;28;20403;-79
2022/10/24 11:39:14;;;;;;;6.33;3.40;;;;;;;21.84;39.48;101686.16;5038052;28;20399;-80
2022/10/24 11:42:29;;;;;;;4.18;2.80;;;;;;;21.82;39.42;101680.16;5023779;28;20405;-79
2022/10/24 11:45:13;;;;;;;5.55;2.45;;;;;;;21.87;38.86;101683.03;5022759;28;20400;-81
2022/10/24 11:48:10;;;;;;;7.70;2.60;;;;;;;22.00;38.61;101680.19;5037799;28;20472;-78
2022/10/24 11:51:16;;;;;;;3.53;2.40;;;;;;;22.11;38.63;101655.19;5051604;28;20380;-80
2022/10/24 11:56:42;;;;;;;3.58;2.78;;;;;;;22.04;39.28;101654.41;5153735;22;20421;-79